Weather observations for the past three days for
Paris - Henry County Airport
Imperial (Metric)
Date Time (cdt) Wind (mph) Vis. (mi.) Weather Sky Cond. Temperature (ºF) Relative Humidity Wind Chill (°F) Heat Index (°F) Pressure Precipitation (in)
Air Dwpt 6 hour altimeter (in) sea level (mb) 1 hr 3 hr 6 hr
Max. Min.
04 00:10 SW 10 10.00 Fair CLR 59 41 51% 29.94 0.0
03 23:50 SW 10 10.00 Fair CLR 57.2 41 55% 29.95 0.0
03 23:30 SW 9 10.00 Fair CLR 57.2 41 55% 29.95 0.0
03 23:10 SW 10 10.00 Fair CLR 57.2 41 55% 29.95 0.0
03 22:50 SW 10 10.00 Fair CLR 57.2 41 55% 29.96 0.0
03 22:35 S 10 10.00 Fair CLR 57.2 41 55% 29.96 0.0
03 22:15 SW 10 10.00 Fair CLR 55.4 42.8 63% 29.96 0.0
03 21:50 S 6 10.00 Fair CLR 51.8 41 67% 29.97 0.0
03 21:35 S 6 10.00 Fair CLR 51.8 41 67% 29.96 0.0
03 21:10 S 7 10.00 Fair CLR 53.6 41 63% 29.96 0.0
03 20:55 S 5 10.00 Fair CLR 53.6 41 63% 29.96 0.0
03 20:35 S 5 10.00 Fair CLR 55.4 41 59% 29.96 0.0
03 20:15 SW 5 10.00 Fair CLR 57.2 41 55% 29.95 0.0
03 19:55 S 8 10.00 Fair CLR 60.8 39.2 45% 29.95 0.0
03 19:30 SW 8 10.00 Fair CLR 64.4 39.2 40% 29.95 0.0
03 19:15 S 9 10.00 Fair CLR 64.4 39.2 40% 29.96 0.0
03 18:55 SW 12 10.00 Fair CLR 66.2 39.2 37% 29.97 0.0
03 18:35 SW 9 G 21 9.00 Fair CLR 68 37.4 33% 29.98 0.0
03 18:15 SW 12 G 20 10.00 Fair CLR 68 37.4 33% 29.98 0.0
03 17:50 S 14 9.00 Fair CLR 69.8 37.4 31% 29.98 0.0
03 17:35 SW 15 G 21 9.00 Fair CLR 69.8 37.4 31% 29.98 0.0
03 17:15 S 9 G 15 10.00 Fair CLR 69.8 37.4 31% 29.99 0.0
03 16:55 SW 12 G 18 10.00 Fair CLR 69.8 37.4 31% 30 0.0
03 16:35 SW 13 G 18 9.00 Fair CLR 69.8 37.4 31% 30.01 0.0
03 16:10 SW 17 G 23 10.00 Fair CLR 69.8 37.4 31% 30.03 0.0
03 15:55 SW 15 G 22 10.00 Fair CLR 69.8 37.4 31% 30.03 0.0
03 15:35 W 8 G 22 9.00 Fair CLR 68 37.4 33% 30.04 0.0
03 15:15 SW 10 G 21 10.00 Fair CLR 68 37.4 33% 30.06 0.0
03 14:55 SW 13 G 21 10.00 Fair CLR 68 37.4 33% 30.08 0.0
03 14:30 SW 13 G 26 9.00 Fair CLR 68 37.4 33% 30.09 0.0
03 14:15 SW 13 G 20 9.00 Fair CLR 68 37.4 33% 30.1 0.0
03 13:55 SW 9 G 20 10.00 Fair CLR 66.2 35.6 32% 30.1 0.0
03 13:35 W 10 G 21 10.00 Fair CLR 66.2 35.6 32% 30.11 0.0
03 13:15 SW 15 G 21 10.00 Fair CLR 66.2 37.4 35% 30.12 0.0
03 12:50 W 12 G 28 9.00 Fair CLR 66.2 35.6 32% 30.13 0.0
03 12:35 SW 8 G 17 9.00 Fair CLR 64.4 37.4 37% 30.13 0.0
03 12:15 S 6 G 18 9.00 Fair CLR 64.4 37.4 37% 30.14 0.0
03 11:55 SW 9 G 20 9.00 Fair CLR 64.4 37.4 37% 30.15 0.0
03 11:35 S 8 G 17 9.00 Fair CLR 62.6 35.6 37% 30.16 0.0
03 11:10 S 10 9.00 Fair CLR 60.8 37.4 42% 30.17 0.0
03 10:55 S 10 9.00 Fair CLR 60.8 37.4 42% 30.17 0.0
03 10:35 S 9 8.00 Fair CLR 60.8 37.4 42% 30.17 0.0
03 10:15 S 10 9.00 Fair CLR 59 37.4 45% 30.17 0.0
03 09:55 S 13 8.00 Fair CLR 59 39.2 48% 30.17 0.0
03 09:30 S 10 7.00 Fair CLR 57.2 41 55% 30.17 0.0
03 09:15 S 10 8.00 Fair CLR 55.4 41 59% 30.17 0.0
03 08:55 S 10 9.00 Fair CLR 53.6 42.8 67% 30.17 0.0
03 08:35 S 7 8.00 Fair CLR 51.8 44.6 77% 30.18 0.0
03 08:15 S 5 7.00 Fair CLR 51.8 46.4 82% 30.18 0.0
03 07:50 S 6 7.00 Fair CLR 48.2 46.4 94% 46 30.17 0.0
03 07:35 S 6 6.00 Fog/Mist CLR 46.4 46.4 100% 44 30.17 0.0
03 07:15 S 3 6.00 Fog/Mist CLR 42.8 42.8 100% 30.17 0.0
03 06:55 Calm 4.00 Fog/Mist CLR 39.2 39.2 100% 30.16 0.0
03 06:35 Calm 4.00 Fog/Mist CLR 37.4 37.4 100% 30.16 0.0
03 06:10 Calm 0.75 Fog/Mist VV005 37.4 37.4 100% 30.15 0.0
03 05:55 Calm 0.50 Fog/Mist VV005 35.6 35.6 100% 30.14 0.0
03 05:35 Calm 6.00 Fog/Mist CLR 37.4 37.4 100% 30.14 0.0
03 05:15 Calm 6.00 Fog/Mist CLR 37.4 37.4 100% 30.14 0.0
03 04:55 Calm 0.25 Fog VV002 37.4 37.4 100% 30.14 0.0
03 04:30 Calm 0.25 Fog BKN055 35.6 35.6 100% 30.13 0.0
03 04:15 Calm 1.25 Fog/Mist CLR 33.8 33.8 100% 30.13 0.0
03 03:55 Calm 7.00 Fair CLR 37.4 37.4 100% 30.13 0.0
03 03:35 Calm 8.00 A Few Clouds FEW055 39.2 39.2 100% 30.13 0.0
03 03:15 Calm 4.00 Fog/Mist FEW055 39.2 39.2 100% 30.13 0.0
03 02:50 Calm 9.00 Fair CLR 39.2 39.2 100% 30.13 0.0
03 02:35 Calm 4.00 Fog/Mist CLR 39.2 39.2 100% 30.12 0.0
03 02:15 Calm 3.00 Fog/Mist CLR 37.4 37.4 100% 30.13 0.0
03 01:55 Calm 9.00 Fair CLR 39.2 39.2 100% 30.13 0.0
03 01:35 Calm 10.00 Fair CLR 39.2 39.2 100% 30.13 0.0
03 01:10 Calm 10.00 Fair CLR 39.2 39.2 100% 30.13 0.0
03 00:55 Calm 10.00 Fair CLR 41 41 100% 30.13 0.0
03 00:35 NE 3 10.00 Fair CLR 42.8 42.8 100% 30.13 0.0
03 00:15 Calm 10.00 Fair CLR 42.8 42.8 100% 30.13 0.0
02 23:55 Calm 10.00 Fair CLR 41 41 100% 30.13 0.0
02 23:30 Calm 10.00 Fair CLR 42.8 42.8 100% 30.12 0.0
02 23:15 Calm 10.00 Fair CLR 42.8 42.8 100% 30.12 0.0
02 22:55 Calm 10.00 Fair CLR 44.6 42.8 93% 30.13 0.0
02 22:35 Calm 10.00 Fair CLR 42.8 42.8 100% 30.13 0.0
02 22:15 Calm 10.00 Fair CLR 42.8 42.8 100% 30.13 0.0
02 21:50 Calm 10.00 Fair CLR 44.6 42.8 93% 30.12 0.0
02 21:35 Calm 10.00 Fair CLR 44.6 42.8 93% 30.12 0.0
02 21:15 Calm 10.00 Fair CLR 44.6 42.8 93% 30.11 0.0
02 20:55 Calm 10.00 Fair CLR 44.6 42.8 93% 30.1 0.0
02 20:35 Calm 10.00 Fair CLR 48.2 41 76% 30.1 0.0
02 20:10 N 5 10.00 Fair CLR 50 41 71% 49 30.09 0.0
02 19:55 N 6 10.00 Fair CLR 51.8 41 67% 30.09 0.0
02 19:35 N 7 10.00 Fair CLR 53.6 41 63% 30.08 0.0
02 19:15 N 10 G 16 9.00 Fair CLR 55.4 39.2 55% 30.07 0.0
02 18:55 N 9 G 17 9.00 Fair CLR 55.4 39.2 55% 30.06 0.0
02 18:30 N 13 G 21 9.00 Fair CLR 57.2 39.2 51% 30.06 0.0
02 18:15 N 15 G 21 10.00 Fair CLR 59 39.2 48% 30.06 0.0
02 17:55 N 14 G 21 10.00 Fair CLR 59 39.2 48% 30.05 0.0
02 17:35 N 13 G 21 9.00 Fair CLR 60.8 41 48% 30.05 0.0
02 17:15 N 13 G 33 9.00 A Few Clouds FEW090 60.8 41 48% 30.04 0.0
02 16:50 N 16 G 24 9.00 Overcast SCT075 OVC090 59 41 51% 30.03 0.0
02 16:35 N 17 G 26 9.00 Mostly Cloudy FEW075 BKN090 60.8 41 48% 30.02 0.0
02 16:15 N 16 G 24 9.00 Mostly Cloudy FEW080 BKN100 64.4 32 30% 30.01 0.0
02 15:55 NW 9 G 22 9.00 Partly Cloudy SCT080 SCT095 66.2 30.2 26% 29.99 0.0
02 15:35 NW 9 G 21 10.00 A Few Clouds FEW080 FEW100 68 32 26% 29.99 0.0
02 15:10 W 8 G 25 9.00 Partly Cloudy FEW075 FEW095 SCT110 66.2 32 28% 30 0.0
02 14:55 W 13 G 25 9.00 Partly Cloudy FEW075 SCT095 SCT110 66.2 33.8 30% 30 0.0
02 14:35 W 10 G 18 10.00 A Few Clouds FEW095 66.2 33.8 30% 30 0.0
02 14:15 W 12 9.00 A Few Clouds FEW070 66.2 37.4 35% 30 0.0
02 13:55 W 12 10.00 Mostly Cloudy BKN070 BKN080 64.4 33.8 32% 30.01 0.0
02 13:30 Vrbl 5 G 15 10.00 Mostly Cloudy FEW065 SCT075 BKN095 64.4 35.6 34% 30.01 0.0
02 13:15 W 9 G 22 10.00 Mostly Cloudy FEW065 SCT080 BKN095 66.2 35.6 32% 30.02 0.0
02 12:55 W 10 G 18 10.00 Mostly Cloudy SCT065 BKN080 BKN090 64.4 35.6 34% 30.03 0.0
02 12:35 W 13 G 18 9.00 Partly Cloudy FEW065 FEW080 SCT090 64.4 35.6 34% 30.03 0.0
02 12:15 W 15 9.00 Partly Cloudy FEW080 SCT090 SCT110 64.4 35.6 34% 30.04 0.0
02 11:50 W 13 G 20 9.00 Mostly Cloudy BKN080 BKN110 64.4 37.4 37% 30.05 0.0
02 11:35 W 9 G 18 10.00 Mostly Cloudy SCT085 BKN110 64.4 35.6 34% 30.06 0.0
02 11:15 SW 8 10.00 Partly Cloudy SCT080 SCT090 SCT110 62.6 35.6 37% 30.06 0.0
02 10:55 Vrbl 3 G 12 10.00 Partly Cloudy SCT085 SCT110 62.6 35.6 37% 30.06 0.0
02 10:35 SW 6 10.00 Mostly Cloudy BKN100 60.8 33.8 36% 30.06 0.0
02 10:10 Calm 10.00 A Few Clouds FEW100 60.8 37.4 42% 30.06 0.0
02 09:55 Vrbl 6 9.00 Partly Cloudy SCT100 59 39.2 48% 30.06 0.0
02 09:35 Calm 10.00 Mostly Cloudy FEW080 BKN100 57.2 39.2 51% 30.06 0.0
02 09:15 Calm 10.00 Partly Cloudy FEW080 SCT095 59 37.4 45% 30.06 0.0
02 08:55 SE 5 10.00 Fair CLR 57.2 39.2 51% 30.06 0.0
02 08:30 Vrbl 3 9.00 Fair CLR 55.4 41 59% 30.05 0.0
02 08:15 Calm 10.00 Fair CLR 53.6 41 63% 30.06 0.0
02 07:55 Calm 9.00 Fair CLR 51.8 44.6 77% 30.05 0.0
02 07:35 Calm 10.00 Fair CLR 48.2 46.4 94% 30.05 0.0
02 07:15 Calm 10.00 Partly Cloudy FEW075 SCT090 46.4 46.4 100% 30.04 0.0
02 06:50 Calm 8.00 A Few Clouds FEW080 FEW090 42.8 42.8 100% 30.04 0.0
02 06:35 Calm 10.00 Fair CLR 41 41 100% 30.03 0.0
02 06:15 Calm 9.00 Fair CLR 39.2 39.2 100% 30.02 0.0
02 05:55 Calm 10.00 Fair CLR 39.2 39.2 100% 30.02 0.0
02 05:35 Calm 10.00 Fair CLR 41 41 100% 30.02 0.0
02 05:10 Calm 10.00 Fair CLR 41 41 100% 30.02 0.0
02 04:55 Calm 10.00 Fair CLR 41 41 100% 30.02 0.0
02 04:35 Calm 10.00 Fair CLR 41 41 100% 30.01 0.0
02 04:15 Calm 10.00 Fair CLR 42.8 41 93% 30.01 0.0
02 03:55 Calm 10.00 Fair CLR 42.8 41 93% 30.01 0.0
02 03:30 Calm 10.00 Fair CLR 42.8 41 93% 30.01 0.0
02 03:15 Calm 10.00 Fair CLR 44.6 41 87% 30.01 0.0
02 02:55 Calm 10.00 Fair CLR 44.6 41 87% 30.02 0.0
02 02:35 NE 3 10.00 Fair CLR 44.6 41 87% 30.02 0.0
02 02:15 Calm 10.00 Fair CLR 48.2 39.2 71% 30.03 0.0
02 01:50 NE 3 10.00 Fair CLR 48.2 39.2 71% 30.03 0.0
02 01:35 NE 3 10.00 Fair CLR 48.2 39.2 71% 30.03 0.0
02 01:15 Calm 10.00 Fair CLR 44.6 41 87% 30.04 0.0
02 00:55 Calm 10.00 Fair CLR 46.4 39.2 76% 30.05 0.0
02 00:35 Calm 10.00 Fair CLR 46.4 39.2 76% 30.04 0.0
02 00:10 Calm 10.00 Fair CLR 46.4 39.2 76% 30.03 0.0
01 23:55 N 3 10.00 Fair CLR 46.4 39.2 76% 30.03 0.0
01 23:35 Calm 10.00 Fair CLR 48.2 39.2 71% 30.03 0.0
01 23:15 Calm 10.00 Fair CLR 48.2 39.2 71% 30.03 0.0
01 22:55 NE 3 10.00 Fair CLR 48.2 39.2 71% 30.04 0.0
01 22:30 Calm 10.00 Fair CLR 46.4 39.2 76% 30.05 0.0
01 22:15 Calm 10.00 Fair CLR 48.2 39.2 71% 30.06 0.0
01 21:55 Calm 10.00 Fair CLR 50 37.4 62% 30.06 0.0
01 21:35 Calm 10.00 Fair CLR 50 37.4 62% 30.07 0.0
01 21:15 N 3 10.00 Fair CLR 51.8 37.4 58% 30.06 0.0
01 20:50 N 3 10.00 Fair CLR 51.8 37.4 58% 30.04 0.0
01 20:35 N 5 10.00 Fair CLR 53.6 35.6 51% 30.04 0.0
01 20:15 N 5 10.00 Fair CLR 55.4 33.8 44% 30.02 0.0
01 19:55 N 6 10.00 Fair CLR 53.6 35.6 51% 30.02 0.0
01 19:35 N 5 10.00 Fair CLR 57.2 33.8 41% 30.01 0.0
01 19:10 N 7 10.00 Fair CLR 59 32 36% 29.99 0.0
01 18:55 N 8 G 15 10.00 Fair CLR 60.8 32 34% 29.98 0.0
01 18:35 N 9 10.00 Fair CLR 60.8 32 34% 29.98 0.0
01 18:15 NE 9 10.00 Fair CLR 62.6 30.2 30% 29.97 0.0
01 17:55 N 8 G 15 9.00 Fair CLR 62.6 32 32% 29.96 0.0
01 17:30 N 10 10.00 Fair CLR 62.6 32 32% 29.96 0.0
01 17:15 N 12 G 18 10.00 Fair CLR 64.4 32 30% 29.95 0.0
01 16:55 N 12 G 17 10.00 Fair CLR 64.4 32 30% 29.96 0.0
01 16:35 N 12 10.00 Fair CLR 64.4 30.2 28% 29.96 0.0
01 16:15 N 10 10.00 Fair CLR 64.4 32 30% 29.96 0.0
01 15:50 N 10 G 18 10.00 Fair CLR 64.4 30.2 28% 29.98 0.0
01 15:35 NE 10 G 20 10.00 Fair CLR 62.6 30.2 30% 29.99 0.0
01 15:15 N 9 9.00 Fair CLR 64.4 30.2 28% 30 0.0
01 14:55 N 8 10.00 Fair CLR 64.4 30.2 28% 30.01 0.0
01 14:35 N 8 G 17 9.00 Fair CLR 64.4 30.2 28% 30.02 0.0
01 14:10 W 5 G 16 9.00 Fair CLR 64.4 30.2 28% 30.03 0.0
01 13:55 NW 9 G 18 10.00 Fair CLR 64.4 30.2 28% 30.03 0.0
01 13:35 NE 9 G 18 9.00 Fair CLR 62.6 32 32% 30.03 0.0
01 13:15 N 14 9.00 Fair CLR 64.4 32 30% 30.03 0.0
01 12:55 NW 9 G 21 9.00 Fair CLR 62.6 32 32% 30.03 0.0
01 12:30 N 9 G 16 10.00 Fair CLR 62.6 33.8 34% 30.03 0.0
01 12:15 N 8 G 17 9.00 Fair CLR 62.6 33.8 34% 30.03 0.0
01 11:55 N 15 G 22 9.00 Fair CLR 62.6 35.6 37% 30.04 0.0
01 11:35 N 12 G 21 10.00 Fair CLR 62.6 35.6 37% 30.05 0.0
01 11:15 N 14 9.00 Fair CLR 60.8 35.6 39% 30.04 0.0
01 10:50 N 8 G 15 9.00 Fair CLR 60.8 37.4 42% 30.05 0.0
01 10:35 NW 9 G 16 9.00 Fair CLR 60.8 37.4 42% 30.05 0.0
01 10:15 N 13 G 20 10.00 Fair CLR 60.8 39.2 45% 30.05 0.0
01 09:35 N 12 G 17 10.00 Fair CLR 57.2 41 55% 30.04 0.0
01 09:10 N 16 9.00 Fair CLR 57.2 41 55% 30.03 0.0
01 08:55 N 10 G 20 9.00 Fair CLR 57.2 42.8 59% 30.03 0.0
01 08:35 N 10 10.00 Fair CLR 57.2 48.2 72% 30.02 0.0
01 08:15 NW 10 9.00 Fair CLR 55.4 48.2 77% 30.02 0.0
01 07:55 N 6 G 12 9.00 Fair CLR 55.4 48.2 77% 30.02 0.0
01 07:30 N 7 10.00 Fair CLR 53.6 48.2 82% 30.01 0.0
01 07:15 N 6 9.00 Fair CLR 51.8 48.2 88% 30.01 0.0
01 06:55 Calm 9.00 Fair CLR 48.2 48.2 100% 30.01 0.0
01 06:35 Calm 8.00 Fair CLR 44.6 44.6 100% 30 0.0
01 06:15 Calm 8.00 Fair CLR 42.8 42.8 100% 29.99 0.0
01 05:50 Calm 9.00 Fair CLR 42.8 42.8 100% 29.98 0.0
01 05:35 Calm 10.00 Fair CLR 42.8 42.8 100% 29.98 0.0
01 05:10 Calm 10.00 Fair CLR 44.6 44.6 100% 29.98 0.0
01 04:55 Calm 2.00 Fog/Mist CLR 42.8 42.8 100% 29.98 0.0
01 04:35 Calm 0.75 Fog/Mist VV005 41 41 100% 29.98 0.0
01 04:10 Calm 10.00 Fair CLR 44.6 44.6 100% 29.97 0.0
01 03:55 Calm 10.00 Fair CLR 44.6 44.6 100% 29.97 0.0
01 03:35 Calm 10.00 Fair CLR 44.6 44.6 100% 29.97 0.0
01 03:15 Calm 10.00 Fair CLR 44.6 44.6 100% 29.97 0.0
01 02:55 Calm 10.00 Fair CLR 46.4 46.4 100% 29.97 0.0
01 02:30 Calm 10.00 Fair CLR 46.4 46.4 100% 29.97 0.0
01 02:15 Calm 10.00 A Few Clouds FEW110 48.2 46.4 94% 29.97 0.0
01 01:55 Calm 10.00 Mostly Cloudy BKN100 48.2 46.4 94% 29.97 0.0
01 01:35 N 3 10.00 Overcast BKN100 OVC120 50 48.2 94% 29.98 0.0
01 01:15 Calm 10.00 Overcast OVC095 50 48.2 94% 29.98 0.0
01 00:50 Calm 10.00 Overcast OVC100 51.8 50 94% 29.99 0.0
01 00:35 Calm 10.00 Overcast BKN095 OVC110 51.8 50 94% 29.99 0.0
Date Time (cdt) Wind (mph) Vis. (mi.) Weather Sky Cond. Air Dwpt Max. Min. Relative Humidity Wind Chill (°F) Heat Index (°F) altimeter (in) sea level (mb) 1 hr 3 hr 6 hr
6 hour
Temperature (ºF) Pressure Precipitation (in)